Flugplatz Herten-Rheinfelden

EDTR · 巴登-符腾堡, 德国

罗盘
风向 的 风向 240° Flugplatz Herten-Rheinfelden 6/24
风: 5 kt, 2 beaufort

5 kt

改变
0 ft 1.000 2.000 3.000 4.000 5.000
CAVOK
METAR LFSB 212330Z AUTO 24005KT CAVOK 17/15 Q1018 TEMPO 4000 SHRA SCT030TCU

METAR Flugplatz Herten-Rheinfelden - EDTR

Flugplatz Herten-Rheinfelden是,德国中的小机场。 该机场位于纬度47,56034和经度7,74859。 该机场有一条跑道: 6/24. 本场的ICAO机场代码为EDTR。 机场在Reims FIR中。

该航空气象观测是针对EuroAirport Basel-Mulhouse-Freiburg Airport在2024年6月22日 01:30, 当地时间进行的。

机场观察

风向为240°,速度为5 kt。

天气为CAVOK。这意味着在5.000 ft或MSA(最低安全高度)以下(以较高者为准)以下没有云。这也意味着没有观测到积雨云或高耸的积云,可见度为10 km 或者更多或更高。此外,不会有雾,降雨或其他重要天气。

温度和风寒是17 °C。 露点为15 °C,相对湿度为88%。 海平面上的气压为1018 hPa (QNH)。

发展趋势

  • 暂时的

    可变方向的风很小或没有。 可见性变为4 km。 重大天气:阵雨 雨。 疏云,零星散落的云朵 高耸的积云在3.000 ft的高度.

白天

今天,太阳从05:31升起,在21:30降落。 这适用于Flugplatz Herten-Rheinfelden,世界夏令时可能有所不同。 当地时间与世界标准时间之间的时差为+2 小时。 夏令时目前正在进行中。

公司介绍

我们没有关于这个机场的公司信息。

体会

到Vliegles.nl去找飞行课程,跳伞和其他飞行体验。 浏览页面,了解Flugplatz Herten-Rheinfelden附近所有可用的活动。 你也可以使用搜索功能来寻找你所在地附近的特定飞行课程、跳伞或其他飞行体验。

跑道

Id 标题 侧风 逆风 侧风 %
6/24 060°-240° 5 kt 0 %

逆风成分最大的方向会被突出显示,并用于横风计算。 这并不一定意味着这个方向在使用。

温度 & 天气

温度 17 °C
露点 15 °C
相对湿度 88%
Kp-index 1 (0-9)

白天

日出
05:32 (3:45)
中午
13:31
日落
21:31

小工具

你想在你的网站上有一个关于Flugplatz Herten-Rheinfelden的当前航空天气(METAR)的小部件吗?

显示HTML代码
报告变更